createdAt,value
2018-09-22T00:00:01.463Z,96.20
2018-09-22T00:02:29.808Z,95.90
2018-09-22T00:04:58.285Z,96.00
2018-09-22T00:07:26.660Z,96.20
2018-09-22T00:09:55.015Z,96.10
2018-09-22T00:12:23.375Z,96.20
2018-09-22T00:14:51.748Z,96.10
2018-09-22T00:17:20.112Z,96.00
2018-09-22T00:19:48.510Z,95.90
2018-09-22T00:22:16.864Z,95.90
2018-09-22T00:24:45.240Z,95.90
2018-09-22T00:27:13.661Z,95.90
2018-09-22T00:29:41.943Z,95.90
2018-09-22T00:32:10.319Z,96.30
2018-09-22T00:34:38.663Z,96.00
2018-09-22T00:37:07.063Z,96.10
2018-09-22T00:39:35.423Z,96.40
2018-09-22T00:42:03.815Z,96.40
2018-09-22T00:44:32.190Z,96.30
2018-09-22T00:47:00.619Z,96.50
2018-09-22T00:49:28.979Z,96.50
2018-09-22T00:51:57.381Z,96.50
2018-09-22T00:54:25.779Z,96.60
2018-09-22T00:56:54.158Z,96.60
2018-09-22T00:59:22.541Z,96.60
2018-09-22T01:01:50.945Z,96.70
2018-09-22T01:04:19.344Z,97.10
2018-09-22T01:06:47.820Z,97.10
2018-09-22T01:09:16.167Z,97.40
2018-09-22T01:11:44.530Z,97.20
2018-09-22T01:14:12.906Z,97.20
2018-09-22T01:16:41.270Z,97.40
2018-09-22T01:19:09.606Z,97.30
2018-09-22T01:21:37.960Z,97.60
2018-09-22T01:24:06.393Z,97.80
2018-09-22T01:26:34.839Z,97.90
2018-09-22T01:29:03.169Z,97.80
2018-09-22T01:31:31.507Z,97.90
2018-09-22T01:33:59.886Z,98.00
2018-09-22T01:36:28.207Z,98.40
2018-09-22T01:38:56.586Z,98.50
2018-09-22T01:41:24.926Z,98.60
2018-09-22T01:43:53.248Z,98.60
2018-09-22T01:46:21.618Z,98.70
2018-09-22T01:48:49.959Z,98.90
2018-09-22T01:51:18.303Z,98.90
2018-09-22T01:53:46.677Z,98.80
2018-09-22T01:56:15.034Z,98.80
2018-09-22T01:58:43.378Z,98.70
2018-09-22T02:01:11.746Z,98.80
2018-09-22T02:03:40.120Z,98.60
2018-09-22T02:06:08.486Z,98.60
2018-09-22T02:08:36.894Z,98.50
2018-09-22T02:11:05.305Z,98.50
2018-09-22T02:13:33.848Z,98.50
2018-09-22T02:16:02.253Z,98.40
2018-09-22T02:18:30.658Z,98.40
2018-09-22T02:20:59.107Z,98.20
2018-09-22T02:23:27.494Z,98.20
2018-09-22T02:25:55.883Z,98.20
2018-09-22T02:28:24.327Z,98.10
2018-09-22T02:30:52.771Z,98.00
2018-09-22T02:33:21.163Z,98.00
2018-09-22T02:35:49.708Z,97.80
2018-09-22T02:38:18.240Z,98.00
2018-09-22T02:40:46.625Z,98.10
2018-09-22T02:43:15.047Z,98.10
2018-09-22T02:45:43.459Z,98.10
2018-09-22T02:48:11.841Z,98.00
2018-09-22T02:50:40.300Z,98.10
2018-09-22T02:53:08.730Z,98.30
2018-09-22T02:55:37.179Z,98.30
2018-09-22T02:58:05.628Z,98.30
2018-09-22T03:00:34.052Z,98.40
2018-09-22T03:03:02.465Z,98.20
2018-09-22T03:05:30.889Z,98.50
2018-09-22T03:07:59.327Z,98.70
2018-09-22T03:10:27.720Z,98.80
2018-09-22T03:12:56.146Z,98.80
2018-09-22T03:15:24.589Z,99.00
2018-09-22T03:17:52.925Z,98.80
2018-09-22T03:20:21.338Z,98.80
2018-09-22T03:22:49.722Z,98.90
2018-09-22T03:25:18.121Z,98.90
2018-09-22T03:27:46.536Z,98.90
2018-09-22T03:30:14.931Z,98.90
2018-09-22T03:32:43.310Z,99.00
2018-09-22T03:35:11.733Z,99.00
2018-09-22T03:37:40.121Z,99.00
2018-09-22T03:40:08.516Z,99.40
2018-09-22T03:42:36.963Z,99.40
2018-09-22T03:45:05.430Z,99.40
2018-09-22T03:47:33.817Z,99.40
2018-09-22T03:50:02.225Z,99.40
2018-09-22T03:52:30.609Z,99.50
2018-09-22T03:54:59.058Z,99.60
2018-09-22T03:57:27.446Z,99.60
2018-09-22T03:59:55.830Z,99.90
2018-09-22T04:02:24.447Z,99.90
2018-09-22T04:04:52.828Z,99.90
2018-09-22T04:07:21.157Z,99.90
2018-09-22T04:09:49.515Z,99.90
2018-09-22T04:12:17.850Z,99.90
2018-09-22T04:14:46.223Z,99.90
2018-09-22T04:17:14.530Z,99.90
2018-09-22T04:19:42.920Z,99.90
2018-09-22T04:22:11.274Z,99.90
2018-09-22T04:24:39.607Z,99.90
2018-09-22T04:27:07.969Z,99.90
2018-09-22T04:29:36.304Z,99.90
2018-09-22T04:32:04.654Z,99.90
2018-09-22T04:34:33.037Z,99.90
2018-09-22T04:37:01.388Z,99.90
2018-09-22T04:39:29.717Z,99.90
2018-09-22T04:41:58.074Z,99.90
2018-09-22T04:44:26.403Z,99.90
2018-09-22T04:46:54.737Z,99.90
2018-09-22T04:49:23.131Z,99.90
2018-09-22T04:51:51.472Z,99.90
2018-09-22T04:54:19.799Z,99.90
2018-09-22T04:56:48.188Z,99.90
2018-09-22T04:59:16.540Z,99.90
2018-09-22T05:01:44.872Z,99.90
2018-09-22T05:04:13.274Z,99.90
2018-09-22T05:06:41.669Z,99.90
2018-09-22T05:09:11.923Z,99.90
2018-09-22T05:11:40.244Z,99.90
2018-09-22T05:14:08.638Z,99.90
2018-09-22T05:16:37.068Z,99.90
2018-09-22T05:19:05.554Z,99.90
2018-09-22T05:21:33.915Z,99.90
2018-09-22T05:24:02.295Z,99.90
2018-09-22T05:26:30.670Z,99.90
2018-09-22T05:28:59.032Z,99.90
2018-09-22T05:31:27.391Z,99.90
2018-09-22T05:33:55.705Z,99.90
2018-09-22T05:36:24.083Z,99.90
2018-09-22T05:38:52.502Z,99.90
2018-09-22T05:41:20.844Z,99.90
2018-09-22T05:43:49.173Z,99.90
2018-09-22T05:46:17.574Z,99.90
2018-09-22T05:48:45.910Z,99.90
2018-09-22T05:51:14.251Z,99.90
2018-09-22T05:53:42.622Z,99.90
2018-09-22T05:56:10.999Z,99.90
2018-09-22T05:58:39.354Z,99.90
2018-09-22T06:01:07.744Z,99.90
2018-09-22T06:03:36.141Z,99.90
2018-09-22T06:06:04.484Z,99.90
2018-09-22T06:08:32.862Z,99.90
2018-09-22T06:11:01.268Z,99.90
2018-09-22T06:13:29.621Z,99.90
2018-09-22T06:15:58.030Z,99.90
2018-09-22T06:18:26.342Z,99.90
2018-09-22T06:20:54.677Z,99.90
2018-09-22T06:23:23.057Z,99.90
2018-09-22T06:25:51.398Z,99.90
2018-09-22T06:28:19.806Z,99.90
2018-09-22T06:30:48.155Z,99.90
2018-09-22T06:33:16.506Z,99.90
2018-09-22T06:35:44.908Z,99.90
2018-09-22T06:38:13.307Z,99.90
2018-09-22T06:40:41.682Z,99.90
2018-09-22T06:43:10.013Z,99.90
2018-09-22T06:45:38.365Z,99.90
2018-09-22T06:48:06.736Z,99.90
2018-09-22T06:50:35.100Z,99.90
2018-09-22T06:53:03.581Z,99.90
2018-09-22T06:55:31.970Z,99.90
2018-09-22T06:58:00.365Z,99.90
2018-09-22T07:00:28.804Z,99.90
2018-09-22T07:02:57.189Z,99.90
2018-09-22T07:05:25.641Z,99.90
2018-09-22T07:07:54.032Z,99.90
2018-09-22T07:10:22.500Z,99.90
2018-09-22T07:12:50.997Z,99.90
2018-09-22T07:15:19.383Z,99.90
2018-09-22T07:17:47.799Z,99.90
2018-09-22T07:20:16.215Z,99.90
2018-09-22T07:22:50.022Z,99.90
2018-09-22T07:25:18.471Z,99.90
2018-09-22T07:27:46.831Z,99.90
2018-09-22T07:30:15.343Z,99.90
2018-09-22T07:32:43.982Z,99.90
2018-09-22T07:35:12.427Z,99.90
2018-09-22T07:37:40.875Z,99.90
2018-09-22T07:40:09.290Z,99.90
2018-09-22T07:42:37.703Z,99.90
2018-09-22T07:45:06.179Z,99.90
2018-09-22T07:47:34.555Z,99.90
2018-09-22T07:50:03.004Z,99.90
2018-09-22T07:52:31.395Z,99.90
2018-09-22T07:55:00.024Z,99.90
2018-09-22T07:57:28.442Z,99.90
2018-09-22T07:59:57.167Z,99.90
2018-09-22T08:02:25.626Z,99.90
2018-09-22T08:04:54.032Z,99.90
2018-09-22T08:07:22.624Z,99.90
2018-09-22T08:09:51.003Z,99.90
2018-09-22T08:12:19.343Z,99.90
2018-09-22T08:14:47.801Z,99.90
2018-09-22T08:17:16.151Z,99.90
2018-09-22T08:19:44.527Z,99.90
2018-09-22T08:22:12.914Z,99.90
2018-09-22T08:24:41.295Z,99.90
2018-09-22T08:27:09.633Z,99.90
2018-09-22T08:29:38.032Z,99.90
2018-09-22T08:32:06.409Z,99.90
2018-09-22T08:34:34.757Z,99.90
2018-09-22T08:37:03.348Z,99.90
2018-09-22T08:39:31.545Z,99.90
2018-09-22T08:41:59.892Z,99.90
2018-09-22T08:44:28.231Z,99.90
2018-09-22T08:46:56.593Z,99.90
2018-09-22T08:49:25.007Z,99.90
2018-09-22T08:51:53.552Z,99.90
2018-09-22T08:54:21.974Z,99.90
2018-09-22T08:56:50.318Z,99.90
2018-09-22T08:59:18.691Z,99.90
2018-09-22T09:01:47.037Z,99.90
2018-09-22T09:04:15.396Z,99.90
2018-09-22T09:06:43.855Z,99.90
2018-09-22T09:09:12.253Z,99.90
2018-09-22T09:11:40.667Z,99.90
2018-09-22T09:14:09.147Z,99.90
2018-09-22T09:16:37.568Z,99.90
2018-09-22T09:19:05.987Z,99.90
2018-09-22T09:21:34.435Z,99.90
2018-09-22T09:24:02.859Z,99.90
2018-09-22T09:26:31.266Z,99.90
2018-09-22T09:28:59.696Z,99.90
2018-09-22T09:31:28.099Z,99.90
2018-09-22T09:33:56.495Z,99.90
2018-09-22T09:36:24.933Z,99.90
2018-09-22T09:38:56.743Z,99.90
2018-09-22T09:41:25.163Z,99.90
2018-09-22T09:43:53.555Z,99.90
2018-09-22T09:46:21.965Z,99.90
2018-09-22T09:48:50.391Z,99.90
2018-09-22T09:51:19.042Z,99.90
2018-09-22T09:53:47.427Z,99.90
2018-09-22T09:56:15.865Z,99.90
2018-09-22T09:58:44.362Z,99.90
2018-09-22T10:01:12.779Z,99.90
2018-09-22T10:03:41.230Z,99.90
2018-09-22T10:06:09.621Z,99.60
2018-09-22T10:08:38.066Z,99.90
2018-09-22T10:11:06.562Z,99.50
2018-09-22T10:13:35.019Z,99.90
2018-09-22T10:16:03.398Z,99.70
2018-09-22T10:18:32.903Z,99.90
2018-09-22T10:21:01.333Z,99.20
2018-09-22T10:23:29.730Z,99.10
2018-09-22T10:25:58.192Z,98.30
2018-09-22T10:28:26.658Z,98.10
2018-09-22T10:30:54.990Z,98.10
2018-09-22T10:33:23.414Z,98.20
2018-09-22T10:35:51.835Z,98.30
2018-09-22T10:38:20.240Z,98.10
2018-09-22T10:40:48.672Z,98.60
2018-09-22T10:43:17.071Z,97.90
2018-09-22T10:45:45.492Z,98.10
2018-09-22T10:48:13.910Z,98.40
2018-09-22T10:50:42.683Z,98.20
2018-09-22T10:53:11.126Z,98.20
2018-09-22T10:55:39.568Z,98.20
2018-09-22T10:58:07.969Z,98.70
2018-09-22T11:00:36.395Z,98.40
2018-09-22T11:03:04.834Z,98.50
2018-09-22T11:05:33.230Z,98.40
2018-09-22T11:08:01.662Z,98.10
2018-09-22T11:10:30.077Z,98.30
2018-09-22T11:12:58.502Z,97.90
2018-09-22T11:15:26.954Z,98.40
2018-09-22T11:17:55.338Z,98.00
2018-09-22T11:20:24.045Z,98.10
2018-09-22T11:22:52.460Z,97.60
2018-09-22T11:25:20.838Z,97.40
2018-09-22T11:27:49.350Z,97.40
2018-09-22T11:30:17.762Z,97.30
2018-09-22T11:32:46.191Z,97.40
2018-09-22T11:35:15.681Z,97.40
2018-09-22T11:37:44.096Z,96.90
2018-09-22T11:40:12.542Z,97.10
2018-09-22T11:42:40.989Z,97.20
2018-09-22T11:45:09.406Z,97.10
2018-09-22T11:47:37.816Z,97.30
2018-09-22T11:50:06.295Z,97.50
2018-09-22T11:52:34.737Z,97.40
2018-09-22T11:55:03.182Z,96.70
2018-09-22T11:57:31.650Z,96.40
2018-09-22T12:00:00.058Z,96.40
2018-09-22T12:02:28.475Z,96.40
2018-09-22T12:04:56.885Z,96.50
2018-09-22T12:07:25.268Z,96.20
2018-09-22T12:09:53.672Z,96.20
2018-09-22T12:12:22.017Z,96.80
2018-09-22T12:14:50.430Z,96.50
2018-09-22T12:17:18.824Z,96.30
2018-09-22T12:19:47.666Z,95.90
2018-09-22T12:22:16.197Z,96.00
2018-09-22T12:24:44.609Z,96.70
2018-09-22T12:27:13.070Z,96.30
2018-09-22T12:29:41.442Z,96.00
2018-09-22T12:32:09.932Z,95.80
2018-09-22T12:34:38.390Z,95.80
2018-09-22T12:37:06.751Z,95.90
2018-09-22T12:39:35.169Z,95.70
2018-09-22T12:42:03.536Z,95.80
2018-09-22T12:44:31.878Z,95.30
2018-09-22T12:47:00.239Z,95.30
2018-09-22T12:49:28.594Z,95.00
2018-09-22T12:51:56.974Z,94.90
2018-09-22T12:54:25.369Z,94.10
2018-09-22T12:56:53.710Z,93.90
2018-09-22T12:59:22.071Z,94.40
2018-09-22T13:01:50.566Z,94.00
2018-09-22T13:04:18.984Z,94.10
2018-09-22T13:06:47.340Z,93.60
2018-09-22T13:09:15.886Z,92.90
2018-09-22T13:11:44.287Z,93.10
2018-09-22T13:14:12.763Z,92.60
2018-09-22T13:16:41.286Z,93.20
2018-09-22T13:19:09.673Z,92.60
2018-09-22T13:21:38.099Z,92.50
2018-09-22T13:24:06.556Z,92.40
2018-09-22T13:26:34.985Z,92.10
2018-09-22T13:29:03.509Z,92.40
2018-09-22T13:31:31.966Z,92.60
2018-09-22T13:34:00.367Z,92.70
2018-09-22T13:36:28.792Z,92.80
2018-09-22T13:38:57.267Z,92.70
2018-09-22T13:41:25.758Z,93.00
2018-09-22T13:43:54.246Z,92.80
2018-09-22T13:46:22.650Z,92.20
2018-09-22T13:48:51.051Z,92.20
2018-09-22T13:51:19.645Z,92.40
2018-09-22T13:53:48.440Z,92.30
2018-09-22T13:56:16.969Z,92.60
2018-09-22T13:58:45.589Z,92.30
2018-09-22T14:01:14.032Z,91.90
2018-09-22T14:03:42.545Z,91.90
2018-09-22T14:06:11.134Z,91.80
2018-09-22T14:08:39.670Z,92.10
2018-09-22T14:11:08.103Z,92.00
2018-09-22T14:13:36.560Z,92.00
2018-09-22T14:16:05.011Z,92.00
2018-09-22T14:18:33.436Z,91.50
2018-09-22T14:21:01.860Z,91.30
2018-09-22T14:23:30.425Z,91.80
2018-09-22T14:25:58.864Z,91.50
2018-09-22T14:28:27.267Z,91.20
2018-09-22T14:30:55.742Z,91.70
2018-09-22T14:33:24.175Z,91.60
2018-09-22T14:35:52.590Z,91.40
2018-09-22T14:38:21.018Z,91.40
2018-09-22T14:40:54.007Z,91.50
2018-09-22T14:43:24.185Z,91.40
2018-09-22T14:45:57.515Z,91.40
2018-09-22T14:48:32.865Z,91.60
2018-09-22T14:51:08.197Z,91.60
2018-09-22T14:53:47.737Z,91.70
2018-09-22T14:56:28.700Z,91.70
2018-09-22T14:58:57.612Z,91.90
2018-09-22T15:01:32.957Z,91.90
2018-09-22T15:04:05.918Z,91.30
2018-09-22T15:06:38.671Z,91.80
2018-09-22T15:09:10.838Z,91.60
2018-09-22T15:11:44.893Z,91.70
2018-09-22T15:14:13.558Z,91.80
2018-09-22T15:16:44.384Z,91.70
2018-09-22T15:19:15.278Z,91.80
2018-09-22T15:21:46.074Z,91.90
2018-09-22T15:24:16.438Z,92.00
2018-09-22T15:26:47.063Z,91.70
2018-09-22T15:29:17.283Z,92.30
2018-09-22T15:31:49.894Z,92.20
2018-09-22T15:34:23.205Z,92.20
2018-09-22T15:36:53.199Z,91.60
2018-09-22T15:39:24.192Z,91.70
2018-09-22T15:41:54.925Z,91.70
2018-09-22T15:44:23.372Z,91.70
2018-09-22T15:46:51.745Z,91.80
2018-09-22T15:49:20.174Z,92.40
2018-09-22T15:51:48.604Z,92.90
2018-09-22T15:54:17.053Z,93.40
2018-09-22T15:56:45.506Z,94.10
2018-09-22T15:59:14.040Z,95.00
2018-09-22T16:01:42.500Z,95.90
2018-09-22T16:04:10.934Z,96.30
2018-09-22T16:06:39.403Z,96.30
2018-09-22T16:09:08.804Z,96.70
2018-09-22T16:11:37.309Z,96.80
2018-09-22T16:14:05.731Z,96.00
2018-09-22T16:16:34.111Z,96.20
2018-09-22T16:19:02.780Z,96.00
2018-09-22T16:21:31.631Z,96.30
2018-09-22T16:23:59.971Z,96.40
2018-09-22T16:26:28.316Z,96.70
2018-09-22T16:28:56.689Z,97.60
2018-09-22T16:31:25.063Z,98.30
2018-09-22T16:33:53.435Z,98.00
2018-09-22T16:36:21.822Z,97.70
2018-09-22T16:38:50.195Z,97.90
2018-09-22T16:41:18.579Z,98.30
2018-09-22T16:43:46.893Z,98.00
2018-09-22T16:46:15.252Z,98.30
2018-09-22T16:48:43.640Z,98.90
2018-09-22T16:51:11.982Z,99.00
2018-09-22T16:53:40.318Z,99.70
2018-09-22T16:56:08.702Z,99.90
2018-09-22T16:58:37.074Z,99.90
2018-09-22T17:01:05.361Z,99.90
2018-09-22T17:03:33.738Z,99.90
2018-09-22T17:06:02.132Z,99.90
2018-09-22T17:08:30.473Z,99.90
2018-09-22T17:10:58.814Z,99.90
2018-09-22T17:13:27.324Z,99.90
2018-09-22T17:15:55.728Z,99.90
2018-09-22T17:18:24.109Z,99.90
2018-09-22T17:20:52.550Z,99.90
2018-09-22T17:23:20.946Z,99.90
2018-09-22T17:25:49.413Z,99.90
2018-09-22T17:28:17.822Z,99.90
2018-09-22T17:30:46.262Z,99.90
2018-09-22T17:33:14.829Z,99.90
2018-09-22T17:35:43.389Z,99.90
2018-09-22T17:38:12.363Z,99.90
2018-09-22T17:40:40.988Z,99.90
2018-09-22T17:43:09.432Z,99.90
2018-09-22T17:45:37.870Z,99.90
2018-09-22T17:48:06.295Z,99.90
2018-09-22T17:50:35.558Z,99.90
2018-09-22T17:53:04.039Z,99.90
2018-09-22T17:55:32.427Z,99.90
2018-09-22T17:58:00.867Z,99.90
2018-09-22T18:00:29.260Z,99.90
2018-09-22T18:02:57.672Z,99.90
2018-09-22T18:05:26.172Z,99.90
2018-09-22T18:07:54.568Z,99.90
2018-09-22T18:10:22.981Z,99.90
2018-09-22T18:12:51.422Z,99.90
2018-09-22T18:15:19.802Z,99.90
2018-09-22T18:17:48.260Z,99.90
2018-09-22T18:20:16.716Z,99.90
2018-09-22T18:22:45.150Z,99.90
2018-09-22T18:25:13.652Z,99.90
2018-09-22T18:27:42.120Z,99.90
2018-09-22T18:30:10.547Z,99.90
2018-09-22T18:32:38.998Z,99.90
2018-09-22T18:35:07.426Z,99.90
2018-09-22T18:37:35.810Z,99.90
2018-09-22T18:40:04.294Z,99.90
2018-09-22T18:42:32.685Z,99.90
2018-09-22T18:45:01.109Z,99.90
2018-09-22T18:47:29.755Z,99.90
2018-09-22T18:49:58.155Z,99.90
2018-09-22T18:52:26.575Z,99.90
2018-09-22T18:54:54.982Z,99.90
2018-09-22T18:57:23.380Z,99.90
2018-09-22T18:59:52.018Z,99.90
2018-09-22T19:02:20.474Z,99.90
2018-09-22T19:04:48.875Z,99.90
2018-09-22T19:07:17.333Z,99.90
2018-09-22T19:09:45.780Z,99.90
2018-09-22T19:12:14.238Z,99.90
2018-09-22T19:14:49.088Z,99.90
2018-09-22T19:17:20.240Z,99.90
2018-09-22T19:19:54.715Z,99.90
2018-09-22T19:22:32.247Z,99.90
2018-09-22T19:25:04.480Z,99.90
2018-09-22T19:28:08.076Z,99.90
2018-09-22T19:30:57.579Z,99.90
2018-09-22T19:33:34.622Z,99.90
2018-09-22T19:36:19.745Z,99.90
2018-09-22T19:39:01.688Z,99.90
2018-09-22T19:41:35.600Z,99.90
2018-09-22T19:45:08.824Z,99.90
2018-09-22T19:47:47.445Z,99.90
2018-09-22T19:50:20.306Z,99.90
2018-09-22T19:52:50.914Z,99.90
2018-09-22T19:55:19.466Z,99.90
2018-09-22T19:57:48.231Z,99.90
2018-09-22T20:00:16.596Z,99.90
2018-09-22T20:02:44.978Z,99.90
2018-09-22T20:05:13.401Z,99.90
2018-09-22T20:07:41.790Z,99.90
2018-09-22T20:10:10.196Z,99.90
2018-09-22T20:12:38.537Z,99.90
2018-09-22T20:15:06.907Z,99.90
2018-09-22T20:17:35.551Z,99.90
2018-09-22T20:20:03.851Z,99.90
2018-09-22T20:22:32.186Z,99.90
2018-09-22T20:25:00.583Z,99.90
2018-09-22T20:27:29.010Z,99.90
2018-09-22T20:29:57.369Z,99.90
2018-09-22T20:32:25.748Z,99.90
2018-09-22T20:34:54.102Z,99.90
2018-09-22T20:37:22.490Z,99.90
2018-09-22T20:39:50.901Z,99.90
2018-09-22T20:42:19.279Z,99.90
2018-09-22T20:44:47.674Z,99.90
2018-09-22T20:47:16.058Z,99.90
2018-09-22T20:49:44.583Z,99.90
2018-09-22T20:52:12.950Z,99.90
2018-09-22T20:54:41.779Z,99.90
2018-09-22T20:57:10.178Z,99.90
2018-09-22T20:59:38.514Z,99.90
2018-09-22T21:02:06.899Z,99.90
2018-09-22T21:04:35.275Z,99.90
2018-09-22T21:07:03.627Z,99.90
2018-09-22T21:09:32.001Z,99.90
2018-09-22T21:12:00.404Z,99.90
2018-09-22T21:14:28.761Z,99.90
2018-09-22T21:16:57.124Z,99.90
2018-09-22T21:19:25.486Z,99.90
2018-09-22T21:21:53.839Z,99.90
2018-09-22T21:24:22.304Z,99.90
2018-09-22T21:26:50.593Z,99.90
2018-09-22T21:29:18.931Z,99.90
2018-09-22T21:31:47.299Z,99.90
2018-09-22T21:34:15.669Z,99.90
2018-09-22T21:36:43.998Z,99.90
2018-09-22T21:39:12.388Z,99.90
2018-09-22T21:41:40.787Z,99.90
2018-09-22T21:44:09.481Z,99.90
2018-09-22T21:46:37.878Z,99.90
2018-09-22T21:49:06.329Z,99.90
2018-09-22T21:51:34.679Z,99.90
2018-09-22T21:54:03.061Z,99.90
2018-09-22T21:56:31.397Z,99.90
2018-09-22T21:58:59.743Z,99.90
2018-09-22T22:01:33.404Z,99.90
2018-09-22T22:04:01.755Z,99.90
2018-09-22T22:06:30.095Z,99.90
2018-09-22T22:08:58.478Z,99.90
2018-09-22T22:11:26.920Z,99.90
2018-09-22T22:13:55.197Z,99.90
2018-09-22T22:16:23.754Z,99.90
2018-09-22T22:18:52.151Z,99.90
2018-09-22T22:21:20.538Z,99.90
2018-09-22T22:23:48.992Z,99.90
2018-09-22T22:26:17.400Z,99.90
2018-09-22T22:28:45.834Z,99.90
2018-09-22T22:31:14.284Z,99.90
2018-09-22T22:33:42.762Z,99.90
2018-09-22T22:36:11.213Z,99.90
2018-09-22T22:38:39.608Z,99.90
2018-09-22T22:41:08.074Z,99.90
2018-09-22T22:43:36.513Z,99.90
2018-09-22T22:46:04.990Z,99.90
2018-09-22T22:48:33.432Z,99.90
2018-09-22T22:51:01.834Z,99.90
2018-09-22T22:53:30.239Z,99.90
2018-09-22T22:55:58.695Z,99.90
2018-09-22T22:58:27.081Z,99.90
2018-09-22T23:00:55.477Z,99.90
2018-09-22T23:03:23.939Z,99.90
2018-09-22T23:05:52.354Z,99.90
2018-09-22T23:08:20.737Z,99.90
2018-09-22T23:10:49.260Z,99.90
2018-09-22T23:13:17.688Z,99.90
2018-09-22T23:15:46.161Z,99.90
2018-09-22T23:18:14.624Z,99.90
2018-09-22T23:20:43.035Z,99.90
2018-09-22T23:23:11.410Z,99.90
2018-09-22T23:25:39.840Z,99.90
2018-09-22T23:28:08.223Z,99.90
2018-09-22T23:30:36.656Z,99.90
2018-09-22T23:33:05.080Z,99.90
2018-09-22T23:35:33.504Z,99.90
2018-09-22T23:38:01.932Z,99.90
2018-09-22T23:40:30.322Z,99.90
2018-09-22T23:42:58.758Z,99.90
2018-09-22T23:45:27.184Z,99.90
2018-09-22T23:47:55.588Z,99.90
2018-09-22T23:50:24.003Z,99.90
2018-09-22T23:52:52.476Z,99.90
2018-09-22T23:55:20.850Z,99.90
2018-09-22T23:57:49.276Z,99.90
